createdAt,value
2023-08-03T00:00:25.068Z,97080.48
2023-08-03T00:02:19.502Z,97074.54
2023-08-03T00:04:04.623Z,97071.98
2023-08-03T00:05:52.872Z,97075.27
2023-08-03T00:07:26.407Z,97079.64
2023-08-03T00:09:07.273Z,97077.50
2023-08-03T00:10:40.814Z,97082.34
2023-08-03T00:12:26.026Z,97083.85
2023-08-03T00:14:01.853Z,97086.20
2023-08-03T00:15:35.540Z,97081.30
2023-08-03T00:17:11.237Z,97094.20
2023-08-03T00:18:59.814Z,97078.10
2023-08-03T00:20:33.200Z,97091.59
2023-08-03T00:22:02.339Z,97089.89
2023-08-03T00:23:35.900Z,97090.23
2023-08-03T00:25:09.080Z,97095.34
2023-08-03T00:26:42.641Z,97089.86
2023-08-03T00:28:37.345Z,97086.21
2023-08-03T00:30:25.166Z,97083.80
2023-08-03T00:32:05.296Z,97080.75
2023-08-03T00:33:38.878Z,97082.77
2023-08-03T00:35:12.099Z,97086.06
2023-08-03T00:36:58.578Z,97083.19
2023-08-03T00:38:31.995Z,97082.81
2023-08-03T00:39:53.949Z,97084.48
2023-08-03T00:41:18.119Z,97075.64
2023-08-03T00:43:03.313Z,97066.83
2023-08-03T00:44:39.436Z,97067.73
2023-08-03T00:46:12.921Z,97069.48
2023-08-03T00:47:57.856Z,97059.32
2023-08-03T00:49:31.696Z,97054.56
2023-08-03T00:51:04.824Z,97049.15
2023-08-03T00:52:51.324Z,97050.23
2023-08-03T00:54:44.807Z,97048.51
2023-08-03T00:56:18.506Z,97034.98
2023-08-03T00:57:53.875Z,97030.12
2023-08-03T00:59:25.334Z,97010.39
2023-08-03T01:00:56.614Z,96996.56
2023-08-03T01:02:20.921Z,97012.02
2023-08-03T01:03:58.128Z,97037.88
2023-08-03T01:05:27.951Z,97040.58
2023-08-03T01:07:01.112Z,97033.75
2023-08-03T01:08:25.213Z,97034.79
2023-08-03T01:10:05.995Z,97004.35
2023-08-03T01:11:28.128Z,97021.45
2023-08-03T01:12:51.888Z,97015.66
2023-08-03T01:14:25.481Z,97014.35
2023-08-03T01:16:06.198Z,97015.30
2023-08-03T01:17:47.606Z,97019.41
2023-08-03T01:19:25.179Z,97030.35
2023-08-03T01:20:46.635Z,97037.83
2023-08-03T01:22:11.105Z,97038.27
2023-08-03T01:23:40.514Z,97041.51
2023-08-03T01:25:17.134Z,97057.16
2023-08-03T01:26:52.906Z,97060.31
2023-08-03T01:28:26.541Z,97064.25
2023-08-03T01:30:12.058Z,97062.38
2023-08-03T01:32:01.657Z,97059.44
2023-08-03T01:33:48.921Z,97054.36
2023-08-03T01:35:15.210Z,97050.43
2023-08-03T01:37:00.148Z,97040.30
2023-08-03T01:38:36.107Z,97038.44
2023-08-03T01:40:11.776Z,97050.88
2023-08-03T01:41:49.584Z,97066.90
2023-08-03T01:43:34.703Z,97071.30
2023-08-03T01:45:03.819Z,97057.91
2023-08-03T01:46:37.217Z,97056.44
2023-08-03T01:48:10.703Z,97051.73
2023-08-03T01:49:55.709Z,97034.58
2023-08-03T01:51:37.187Z,97033.62
2023-08-03T01:53:18.613Z,97049.45
2023-08-03T01:55:03.702Z,97050.50
2023-08-03T01:56:38.642Z,97052.98
2023-08-03T01:58:24.432Z,97060.48
2023-08-03T01:59:57.901Z,97052.30
2023-08-03T02:01:43.281Z,97038.98
2023-08-03T02:03:28.558Z,97019.38
2023-08-03T02:05:10.168Z,97007.47
2023-08-03T02:06:55.296Z,97008.78
2023-08-03T02:08:40.282Z,96985.80
2023-08-03T02:10:24.271Z,96948.13
2023-08-03T02:12:05.884Z,96977.52
2023-08-03T02:13:35.319Z,97037.64
2023-08-03T02:15:20.188Z,97053.86
2023-08-03T02:16:56.519Z,97052.66
2023-08-03T02:18:51.542Z,97070.86
2023-08-03T02:20:25.077Z,97064.25
2023-08-03T02:21:58.476Z,97048.11
2023-08-03T02:23:43.498Z,97058.92
2023-08-03T02:25:18.777Z,97058.80
2023-08-03T02:27:01.453Z,97057.82
2023-08-03T02:28:35.075Z,97058.09
2023-08-03T02:30:20.391Z,97053.61
2023-08-03T02:31:56.125Z,97054.42
2023-08-03T02:33:29.645Z,97035.70
2023-08-03T02:35:14.618Z,97029.73
2023-08-03T02:36:50.314Z,97036.33
2023-08-03T02:38:23.891Z,97046.45
2023-08-03T02:39:57.118Z,97058.85
2023-08-03T02:41:44.357Z,97051.16
2023-08-03T02:43:30.037Z,97022.40
2023-08-03T02:45:14.980Z,96991.52
2023-08-03T02:47:05.333Z,96969.51
2023-08-03T02:48:49.918Z,96958.84
2023-08-03T02:50:14.670Z,96956.25
2023-08-03T02:51:47.780Z,96961.68
2023-08-03T02:53:21.456Z,96968.92
2023-08-03T02:55:02.093Z,96988.49
2023-08-03T02:56:28.469Z,96997.70
2023-08-03T02:58:01.684Z,96981.59
2023-08-03T02:59:42.241Z,96973.18
2023-08-03T03:01:36.463Z,96963.27
2023-08-03T03:03:23.812Z,96974.53
2023-08-03T03:05:08.949Z,96982.66
2023-08-03T03:06:46.440Z,96981.91
2023-08-03T03:08:27.241Z,97002.96
2023-08-03T03:10:00.880Z,97014.73
2023-08-03T03:11:35.224Z,97025.39
2023-08-03T03:13:20.437Z,97029.15
2023-08-03T03:14:44.299Z,97028.77
2023-08-03T03:16:30.506Z,97024.73
2023-08-03T03:18:15.552Z,97033.79
2023-08-03T03:19:48.829Z,97032.43
2023-08-03T03:21:24.043Z,97029.48
2023-08-03T03:22:50.252Z,97034.34
2023-08-03T03:24:35.941Z,97037.40
2023-08-03T03:26:21.292Z,97040.94
2023-08-03T03:28:06.640Z,97044.47
2023-08-03T03:29:37.544Z,97051.96
2023-08-03T03:31:22.875Z,97055.52
2023-08-03T03:32:46.926Z,97051.89
2023-08-03T03:34:10.708Z,97046.13
2023-08-03T03:35:57.060Z,97045.85
2023-08-03T03:37:30.994Z,97045.55
2023-08-03T03:39:11.652Z,97048.13
2023-08-03T03:40:45.333Z,97067.98
2023-08-03T03:42:19.046Z,97064.88
2023-08-03T03:43:52.490Z,97066.20
2023-08-03T03:45:33.559Z,97074.06
2023-08-03T03:47:07.309Z,97071.73
2023-08-03T03:48:55.256Z,97066.07
2023-08-03T03:50:37.330Z,97070.14
2023-08-03T03:52:22.409Z,97061.37
2023-08-03T03:53:44.120Z,97074.56
2023-08-03T03:55:18.983Z,97073.46
2023-08-03T03:57:04.015Z,97068.94
2023-08-03T03:58:29.278Z,97066.73
2023-08-03T04:00:09.992Z,97070.55
2023-08-03T04:01:38.925Z,97063.34
2023-08-03T04:03:12.185Z,97064.17
2023-08-03T04:05:05.501Z,97062.77
2023-08-03T04:06:35.196Z,97070.84
2023-08-03T04:08:20.228Z,97082.59
2023-08-03T04:10:00.658Z,97077.86
2023-08-03T04:11:36.369Z,97079.94
2023-08-03T04:13:00.117Z,97086.08
2023-08-03T04:14:29.358Z,97082.11
2023-08-03T04:16:05.464Z,97079.86
2023-08-03T04:17:46.795Z,97097.77
2023-08-03T04:19:29.794Z,97100.00
2023-08-03T04:21:15.308Z,97106.95
2023-08-03T04:22:48.998Z,97107.91
2023-08-03T04:24:43.564Z,97099.52
2023-08-03T04:26:17.546Z,97089.22
2023-08-03T04:27:54.508Z,97092.40
2023-08-03T04:29:28.466Z,97090.32
2023-08-03T04:31:03.928Z,97102.17
2023-08-03T04:32:33.994Z,97118.27
2023-08-03T04:34:09.839Z,97120.17
2023-08-03T04:36:00.133Z,97126.08
2023-08-03T04:37:26.846Z,97125.14
2023-08-03T04:39:00.281Z,97119.73
2023-08-03T04:40:35.998Z,97114.54
2023-08-03T04:42:21.217Z,97112.49
2023-08-03T04:44:02.030Z,97111.48
2023-08-03T04:45:51.576Z,97104.65
2023-08-03T04:47:27.265Z,97117.20
2023-08-03T04:49:14.494Z,97124.17
2023-08-03T04:51:01.066Z,97117.58
2023-08-03T04:52:30.776Z,97103.41
2023-08-03T04:54:15.796Z,97086.27
2023-08-03T04:56:00.033Z,97097.09
2023-08-03T04:57:45.359Z,97096.64
2023-08-03T04:59:22.080Z,97093.65
2023-08-03T05:00:59.055Z,97085.55
2023-08-03T05:02:33.000Z,97094.66
2023-08-03T05:04:09.490Z,97110.39
2023-08-03T05:05:45.120Z,97120.98
2023-08-03T05:07:22.098Z,97117.91
2023-08-03T05:09:07.141Z,97135.83
2023-08-03T05:11:01.059Z,97142.17
2023-08-03T05:12:48.717Z,97107.21
2023-08-03T05:14:42.341Z,97103.36
2023-08-03T05:16:27.782Z,97142.82
2023-08-03T05:18:15.651Z,97153.23
2023-08-03T05:19:45.145Z,97163.80
2023-08-03T05:21:25.825Z,97154.27
2023-08-03T05:22:47.619Z,97144.11
2023-08-03T05:24:23.311Z,97152.80
2023-08-03T05:26:05.116Z,97152.15
2023-08-03T05:27:40.842Z,97150.51
2023-08-03T05:29:14.542Z,97160.14
2023-08-03T05:30:55.237Z,97166.31
2023-08-03T05:32:24.616Z,97185.17
2023-08-03T05:34:00.523Z,97201.89
2023-08-03T05:35:53.793Z,97209.75
2023-08-03T05:37:31.174Z,97205.64
2023-08-03T05:39:11.771Z,97200.89
2023-08-03T05:40:56.997Z,97199.92
2023-08-03T05:42:38.186Z,97207.38
2023-08-03T05:44:02.261Z,97195.13
2023-08-03T05:45:35.848Z,97198.86
2023-08-03T05:47:16.881Z,97184.97
2023-08-03T05:48:51.054Z,97160.63
2023-08-03T05:50:27.051Z,97125.45
2023-08-03T05:52:10.257Z,97146.73
2023-08-03T05:53:43.659Z,97165.22
2023-08-03T05:55:19.802Z,97182.66
2023-08-03T05:57:04.940Z,97223.02
2023-08-03T05:58:38.585Z,97196.13
2023-08-03T06:00:23.917Z,97197.05
2023-08-03T06:01:45.778Z,97191.17
2023-08-03T06:03:15.354Z,97194.92
2023-08-03T06:05:00.374Z,97189.23
2023-08-03T06:06:33.714Z,97186.27
2023-08-03T06:08:07.537Z,97147.19
2023-08-03T06:09:48.232Z,97088.46
2023-08-03T06:11:36.545Z,97044.33
2023-08-03T06:12:58.675Z,97077.77
2023-08-03T06:14:35.517Z,97129.89
2023-08-03T06:16:05.209Z,97162.85
2023-08-03T06:17:50.465Z,97186.34
2023-08-03T06:19:17.597Z,97193.52
2023-08-03T06:21:02.563Z,97186.50
2023-08-03T06:22:47.620Z,97185.19
2023-08-03T06:24:37.301Z,97216.23
2023-08-03T06:26:11.017Z,97248.13
2023-08-03T06:27:56.322Z,97238.23
2023-08-03T06:29:36.676Z,97213.64
2023-08-03T06:31:10.366Z,97202.75
2023-08-03T06:32:31.895Z,97216.48
2023-08-03T06:34:17.045Z,97229.77
2023-08-03T06:35:59.526Z,97206.75
2023-08-03T06:37:21.565Z,97198.34
2023-08-03T06:38:57.115Z,97189.60
2023-08-03T06:40:19.235Z,97168.34
2023-08-03T06:42:04.099Z,97152.86
2023-08-03T06:43:35.671Z,97147.83
2023-08-03T06:45:20.957Z,97165.58
2023-08-03T06:46:54.471Z,97216.96
2023-08-03T06:48:21.456Z,97252.27
2023-08-03T06:49:56.859Z,97249.45
2023-08-03T06:51:46.739Z,97257.52
2023-08-03T06:53:30.794Z,97258.63
2023-08-03T06:55:15.725Z,97249.08
2023-08-03T06:57:00.852Z,97237.19
2023-08-03T06:58:32.050Z,97214.52
2023-08-03T07:00:12.732Z,97199.67
2023-08-03T07:02:02.465Z,97209.48
2023-08-03T07:03:43.452Z,97202.71
2023-08-03T07:05:19.449Z,97185.79
2023-08-03T07:06:56.359Z,97155.52
2023-08-03T07:08:18.765Z,97125.94
2023-08-03T07:09:54.501Z,97105.25
2023-08-03T07:11:39.435Z,97085.80
2023-08-03T07:13:24.743Z,97127.30
2023-08-03T07:15:06.814Z,97149.72
2023-08-03T07:16:52.943Z,97201.86
2023-08-03T07:18:19.763Z,97282.15
2023-08-03T07:19:43.869Z,97305.66
2023-08-03T07:21:10.445Z,97298.73
2023-08-03T07:22:55.223Z,97293.69
2023-08-03T07:24:30.982Z,97275.23
2023-08-03T07:26:04.580Z,97252.02
2023-08-03T07:27:45.224Z,97215.08
2023-08-03T07:29:26.250Z,97226.70
2023-08-03T07:30:59.756Z,97250.99
2023-08-03T07:32:44.663Z,97284.61
2023-08-03T07:34:16.642Z,97291.15
2023-08-03T07:35:47.740Z,97298.05
2023-08-03T07:37:23.607Z,97244.94
2023-08-03T07:39:08.736Z,97227.02
2023-08-03T07:40:42.282Z,97259.52
2023-08-03T07:42:23.170Z,97285.52
2023-08-03T07:43:49.327Z,97271.88
2023-08-03T07:46:59.035Z,97294.32
2023-08-03T07:48:44.105Z,97284.36
2023-08-03T07:50:25.391Z,97272.83
2023-08-03T07:52:00.916Z,97298.09
2023-08-03T07:53:46.170Z,97265.86
2023-08-03T07:55:31.515Z,97268.41
2023-08-03T07:57:16.638Z,97270.02
2023-08-03T07:59:01.396Z,97293.64
2023-08-03T08:00:37.887Z,97280.24
2023-08-03T08:02:32.439Z,97307.89
2023-08-03T08:04:07.930Z,97296.59
2023-08-03T08:05:41.090Z,97323.39
2023-08-03T08:07:14.921Z,97334.87
2023-08-03T08:08:48.718Z,97337.93
2023-08-03T08:10:22.219Z,97323.81
2023-08-03T08:11:55.813Z,97329.70
2023-08-03T08:13:45.599Z,97332.32
2023-08-03T08:15:30.875Z,97320.50
2023-08-03T08:17:13.919Z,97305.81
2023-08-03T08:18:47.804Z,97295.30
2023-08-03T08:20:32.720Z,97276.79
2023-08-03T08:22:17.226Z,97274.48
2023-08-03T08:23:58.736Z,97309.19
2023-08-03T08:25:53.518Z,97298.60
2023-08-03T08:27:39.293Z,97319.91
2023-08-03T08:29:12.979Z,97339.08
2023-08-03T08:30:46.260Z,97354.50
2023-08-03T08:32:31.531Z,97348.14
2023-08-03T08:34:05.240Z,97292.93
2023-08-03T08:35:50.610Z,97268.64
2023-08-03T08:37:36.875Z,97259.67
2023-08-03T08:39:22.250Z,97308.14
2023-08-03T08:40:44.012Z,97254.73
2023-08-03T08:42:17.683Z,97259.41
2023-08-03T08:43:51.065Z,97269.55
2023-08-03T08:45:26.632Z,97244.95
2023-08-03T08:47:12.192Z,97310.81
2023-08-03T08:59:34.748Z,97179.73
2023-08-03T09:01:20.434Z,97208.73
2023-08-03T09:02:41.990Z,97238.37
2023-08-03T09:07:19.109Z,97354.21
2023-08-03T09:08:50.473Z,97343.73
2023-08-03T09:10:23.772Z,97336.26
2023-08-03T09:11:50.346Z,97335.64
2023-08-03T09:13:35.436Z,97332.90
2023-08-03T09:14:59.458Z,97342.56
2023-08-03T09:16:38.217Z,97337.47
2023-08-03T09:18:19.567Z,97337.30
2023-08-03T09:24:45.230Z,97295.06
2023-08-03T09:26:09.516Z,97315.95
2023-08-03T09:29:28.512Z,97337.13
2023-08-03T09:31:03.726Z,97339.91
2023-08-03T09:34:42.836Z,97323.29
2023-08-03T09:37:55.739Z,97331.67
2023-08-03T09:39:42.041Z,97310.78
2023-08-03T09:41:27.387Z,97335.75
2023-08-03T09:42:51.522Z,97366.61
2023-08-03T09:44:27.355Z,97388.16
2023-08-03T09:45:49.217Z,97373.59
2023-08-03T09:47:26.561Z,97322.03
2023-08-03T09:50:27.343Z,97302.66
2023-08-03T09:53:40.340Z,97170.52
2023-08-03T09:55:13.884Z,97230.85
2023-08-03T09:58:32.989Z,97337.05
2023-08-03T09:59:59.421Z,97334.52
2023-08-03T10:01:32.980Z,97321.58
2023-08-03T10:03:13.796Z,97317.38
2023-08-03T10:04:51.628Z,97285.19
2023-08-03T10:06:17.963Z,97312.14
2023-08-03T10:07:54.461Z,97359.88
2023-08-03T10:09:27.983Z,97345.08
2023-08-03T10:11:03.708Z,97256.27
2023-08-03T10:12:39.331Z,97302.44
2023-08-03T10:14:04.401Z,97320.61
2023-08-03T10:15:38.608Z,97277.25
2023-08-03T10:17:12.504Z,97316.70
2023-08-03T10:20:28.504Z,97285.31
2023-08-03T10:22:13.957Z,97250.74
2023-08-03T10:23:39.703Z,97257.41
2023-08-03T10:25:13.101Z,97302.11
2023-08-03T10:26:49.127Z,97344.37
2023-08-03T10:28:13.840Z,97333.23
2023-08-03T10:29:38.351Z,97311.27
2023-08-03T10:31:29.493Z,97320.34
2023-08-03T10:33:14.592Z,97377.11
2023-08-03T10:34:59.848Z,97371.09
2023-08-03T10:36:53.916Z,97382.77
2023-08-03T10:38:30.580Z,97401.44
2023-08-03T10:40:01.605Z,97394.48
2023-08-03T10:41:42.925Z,97382.08
2023-08-03T10:43:28.078Z,97370.80
2023-08-03T10:45:09.252Z,97371.92
2023-08-03T10:46:54.465Z,97380.56
2023-08-03T10:48:19.110Z,97382.46
2023-08-03T10:49:58.001Z,97382.27
2023-08-03T10:51:19.975Z,97408.07
2023-08-03T10:52:55.480Z,97412.04
2023-08-03T10:54:21.880Z,97400.80
2023-08-03T10:55:56.579Z,97384.59
2023-08-03T10:57:37.560Z,97372.02
2023-08-03T10:59:10.942Z,97364.04
2023-08-03T11:00:35.171Z,97359.11
2023-08-03T11:02:28.848Z,97341.42
2023-08-03T11:03:52.918Z,97332.55
2023-08-03T11:05:38.468Z,97335.84
2023-08-03T11:07:00.391Z,97354.61
2023-08-03T11:08:29.943Z,97361.27
2023-08-03T11:10:03.219Z,97357.34
2023-08-03T11:11:36.686Z,97362.95
2023-08-03T11:13:10.204Z,97368.12
2023-08-03T11:14:46.502Z,97369.82
2023-08-03T11:16:35.921Z,97366.35
2023-08-03T11:17:59.601Z,97340.59
2023-08-03T11:19:21.950Z,97326.36
2023-08-03T11:20:55.446Z,97316.03
2023-08-03T11:22:22.145Z,97287.34
2023-08-03T11:23:55.586Z,97297.83
2023-08-03T11:25:21.367Z,97320.45
2023-08-03T11:27:02.047Z,97365.02
2023-08-03T11:28:50.315Z,97371.86
2023-08-03T11:30:31.179Z,97363.46
2023-08-03T11:31:53.231Z,97363.01
2023-08-03T11:33:38.523Z,97364.86
2023-08-03T11:35:12.314Z,97354.46
2023-08-03T11:36:45.924Z,97345.48
2023-08-03T11:38:23.411Z,97347.98
2023-08-03T11:40:05.064Z,97340.89
2023-08-03T11:41:38.512Z,97341.96
2023-08-03T11:43:11.779Z,97357.29
2023-08-03T11:44:57.451Z,97344.57
2023-08-03T11:46:43.452Z,97333.14
2023-08-03T11:48:28.520Z,97347.25
2023-08-03T11:50:04.137Z,97341.09
2023-08-03T11:51:37.531Z,97336.34
2023-08-03T11:53:24.312Z,97356.94
2023-08-03T11:54:46.088Z,97345.15
2023-08-03T11:56:12.857Z,97345.31
2023-08-03T11:59:33.480Z,97312.72
2023-08-03T12:01:18.789Z,97333.61
2023-08-03T12:02:45.723Z,97353.23
2023-08-03T12:04:22.789Z,97348.40
2023-08-03T12:06:06.437Z,97355.20
2023-08-03T12:09:29.922Z,97333.96
2023-08-03T12:11:05.935Z,97338.17
2023-08-03T12:12:36.028Z,97331.94
2023-08-03T12:14:12.602Z,97338.26
2023-08-03T12:15:46.177Z,97338.54
2023-08-03T12:17:29.159Z,97340.90
2023-08-03T12:19:13.536Z,97340.98
2023-08-03T12:22:27.576Z,97345.70
2023-08-03T12:24:03.133Z,97342.35
2023-08-03T12:25:54.028Z,97327.23
2023-08-03T12:27:30.254Z,97334.36
2023-08-03T12:29:14.850Z,97341.92
2023-08-03T12:30:57.306Z,97350.98
2023-08-03T12:32:42.408Z,97341.73
2023-08-03T12:34:15.616Z,97342.54
2023-08-03T12:35:49.173Z,97353.44
2023-08-03T12:37:24.850Z,97357.45
2023-08-03T12:38:49.051Z,97356.77
2023-08-03T12:40:10.838Z,97356.08
2023-08-03T12:41:44.365Z,97352.11
2023-08-03T12:43:25.785Z,97364.94
2023-08-03T12:44:59.388Z,97362.99
2023-08-03T12:46:25.991Z,97364.80
2023-08-03T12:47:59.605Z,97363.20
2023-08-03T12:49:37.179Z,97348.59
2023-08-03T12:51:10.724Z,97344.55
2023-08-03T12:52:55.522Z,97344.18
2023-08-03T12:54:44.691Z,97350.49
2023-08-03T12:56:08.586Z,97356.54
2023-08-03T12:57:42.083Z,97350.45
2023-08-03T12:59:16.100Z,97344.67
2023-08-03T13:00:45.761Z,97338.74
2023-08-03T13:02:19.820Z,97347.46
2023-08-03T13:03:53.234Z,97354.77
2023-08-03T13:05:40.486Z,97360.63
2023-08-03T13:07:10.698Z,97352.98
2023-08-03T13:08:40.542Z,97345.42
2023-08-03T13:10:22.315Z,97347.20
2023-08-03T13:11:52.020Z,97349.48
2023-08-03T13:13:25.679Z,97354.56
2023-08-03T13:15:10.480Z,97360.75
2023-08-03T13:16:34.864Z,97367.09
2023-08-03T13:18:08.854Z,97355.27
2023-08-03T13:19:35.085Z,97354.30
2023-08-03T13:21:29.445Z,97349.09
2023-08-03T13:23:00.881Z,97351.42
2023-08-03T13:24:36.459Z,97355.55
2023-08-03T13:26:10.124Z,97356.52
2023-08-03T13:27:38.891Z,97354.00
2023-08-03T13:29:05.488Z,97351.45
2023-08-03T13:30:27.328Z,97355.18
2023-08-03T13:32:02.263Z,97356.24
2023-08-03T13:33:37.235Z,97358.91
2023-08-03T13:35:06.653Z,97355.26
2023-08-03T13:36:51.465Z,97366.77
2023-08-03T13:38:36.455Z,97376.52
2023-08-03T13:40:10.159Z,97375.46
2023-08-03T13:41:45.379Z,97374.45
2023-08-03T13:43:34.733Z,97377.41
2023-08-03T13:45:08.176Z,97378.77
2023-08-03T13:46:30.222Z,97388.88
2023-08-03T13:48:04.179Z,97388.84
2023-08-03T13:49:45.294Z,97377.42
2023-08-03T13:51:21.002Z,97374.21
2023-08-03T13:52:42.653Z,97371.09
2023-08-03T13:54:31.975Z,97365.13
2023-08-03T13:56:07.413Z,97364.96
2023-08-03T13:59:19.709Z,97363.27
2023-08-03T14:01:14.255Z,97370.35
2023-08-03T14:04:23.086Z,97373.50
2023-08-03T14:09:25.122Z,97379.49
2023-08-03T14:19:09.277Z,97366.13
2023-08-03T14:22:17.027Z,97364.57
2023-08-03T14:23:40.748Z,97360.95
2023-08-03T14:26:46.555Z,97356.11
2023-08-03T14:29:45.958Z,97365.09
2023-08-03T14:31:30.516Z,97362.54
2023-08-03T14:33:06.135Z,97367.31
2023-08-03T14:36:13.985Z,97368.08
2023-08-03T14:37:47.527Z,97370.77
2023-08-03T14:39:24.111Z,97367.23
2023-08-03T14:40:53.770Z,97375.61
2023-08-03T14:42:40.492Z,97377.77
2023-08-03T14:44:20.452Z,97381.17
2023-08-03T14:45:47.367Z,97380.36
2023-08-03T14:47:12.120Z,97383.09
2023-08-03T14:48:38.342Z,97387.27
2023-08-03T14:50:20.149Z,97386.42
2023-08-03T14:53:51.520Z,97389.45
2023-08-03T14:56:33.357Z,97382.74
2023-08-03T14:57:23.955Z,97383.17
2023-08-03T14:58:55.392Z,97392.05
2023-08-03T15:00:19.160Z,97391.48
2023-08-03T15:01:52.737Z,97396.66
2023-08-03T15:03:30.072Z,97387.77
2023-08-03T15:05:15.877Z,97393.34
2023-08-03T15:06:51.759Z,97389.77
2023-08-03T15:08:16.132Z,97385.55
2023-08-03T15:09:49.584Z,97383.73
2023-08-03T15:11:34.855Z,97392.70
2023-08-03T15:13:10.910Z,97398.02
2023-08-03T15:16:28.525Z,97402.66
2023-08-03T15:17:58.512Z,97400.52
2023-08-03T15:21:17.578Z,97396.88
2023-08-03T15:22:59.500Z,97398.94
2023-08-03T15:24:33.826Z,97397.86
2023-08-03T15:26:07.711Z,97395.52
2023-08-03T15:27:57.947Z,97393.92
2023-08-03T15:29:28.121Z,97394.96
2023-08-03T15:34:05.663Z,97401.02
2023-08-03T15:35:42.990Z,97398.27
2023-08-03T15:37:17.084Z,97394.86
2023-08-03T15:38:39.541Z,97398.34
2023-08-03T15:40:15.664Z,97403.17
2023-08-03T15:42:02.187Z,97401.03
2023-08-03T15:43:40.749Z,97406.04
2023-08-03T15:45:24.722Z,97409.23
2023-08-03T15:50:27.420Z,97405.76
2023-08-03T15:52:09.670Z,97407.14
2023-08-03T15:53:49.866Z,97413.27
2023-08-03T15:57:27.390Z,97406.16
2023-08-03T15:58:51.162Z,97403.57
2023-08-03T16:00:27.082Z,97398.55
2023-08-03T16:01:56.349Z,97404.04
2023-08-03T16:03:25.808Z,97400.04
2023-08-03T16:05:01.636Z,97402.88
2023-08-03T16:06:37.469Z,97401.98
2023-08-03T16:08:01.384Z,97402.65
2023-08-03T16:09:37.059Z,97403.86
2023-08-03T16:11:01.114Z,97407.96
2023-08-03T16:12:41.546Z,97397.95
2023-08-03T16:14:31.956Z,97404.05
2023-08-03T16:15:54.169Z,97394.39
2023-08-03T16:17:30.121Z,97396.64
2023-08-03T16:19:05.625Z,97397.98
2023-08-03T16:20:37.492Z,97400.52
2023-08-03T16:22:11.131Z,97404.55
2023-08-03T16:23:32.546Z,97401.90
2023-08-03T16:25:18.286Z,97407.52
2023-08-03T16:27:01.499Z,97411.58
2023-08-03T16:28:37.343Z,97416.71
2023-08-03T16:30:23.029Z,97421.49
2023-08-03T16:32:15.730Z,97412.80
2023-08-03T16:35:31.984Z,97419.30
2023-08-03T16:37:12.903Z,97418.35
2023-08-03T16:38:53.356Z,97421.11
2023-08-03T16:40:27.107Z,97421.52
2023-08-03T16:41:50.887Z,97420.02
2023-08-03T16:43:36.327Z,97416.37
2023-08-03T16:45:21.814Z,97423.80
2023-08-03T16:47:07.248Z,97420.29
2023-08-03T16:48:50.177Z,97423.63
2023-08-03T16:50:23.888Z,97419.48
2023-08-03T16:52:08.730Z,97424.23
2023-08-03T16:53:42.508Z,97421.95
2023-08-03T16:55:37.506Z,97421.95
2023-08-03T16:57:27.533Z,97422.36
2023-08-03T16:59:21.521Z,97426.98
2023-08-03T17:00:55.361Z,97423.20
2023-08-03T17:02:24.740Z,97430.02
2023-08-03T17:04:04.885Z,97424.77
2023-08-03T17:05:57.225Z,97431.94
2023-08-03T17:07:43.283Z,97428.23
2023-08-03T17:09:28.340Z,97434.29
2023-08-03T17:11:01.938Z,97439.14
2023-08-03T17:12:26.347Z,97442.56
2023-08-03T17:13:59.670Z,97441.27
2023-08-03T17:15:21.847Z,97446.70
2023-08-03T17:16:54.836Z,97453.21
2023-08-03T17:18:26.893Z,97442.15
2023-08-03T17:20:11.791Z,97443.35
2023-08-03T17:21:44.776Z,97449.84
2023-08-03T17:23:18.166Z,97446.34
2023-08-03T17:24:59.178Z,97445.69
2023-08-03T17:26:25.395Z,97451.27
2023-08-03T17:27:49.661Z,97450.89
2023-08-03T17:29:23.803Z,97453.79
2023-08-03T17:30:59.580Z,97451.44
2023-08-03T17:32:24.457Z,97452.23
2023-08-03T17:33:46.241Z,97457.51
2023-08-03T17:35:19.936Z,97460.84
2023-08-03T17:36:54.726Z,97460.74
2023-08-03T17:38:28.042Z,97462.16
2023-08-03T17:40:01.467Z,97462.70
2023-08-03T17:41:47.844Z,97463.16
2023-08-03T17:43:42.521Z,97466.62
2023-08-03T17:45:18.282Z,97468.04
2023-08-03T17:46:53.576Z,97467.31
2023-08-03T17:48:29.876Z,97470.21
2023-08-03T17:50:06.643Z,97468.94
2023-08-03T17:51:40.181Z,97471.14
2023-08-03T17:53:25.231Z,97475.46
2023-08-03T17:55:10.256Z,97480.38
2023-08-03T17:56:34.751Z,97483.90
2023-08-03T17:58:10.122Z,97485.60
2023-08-03T17:59:54.900Z,97483.24
2023-08-03T18:01:28.793Z,97483.20
2023-08-03T18:03:02.215Z,97481.19
2023-08-03T18:04:35.650Z,97485.66
2023-08-03T18:06:09.254Z,97483.89
2023-08-03T18:08:03.536Z,97483.73
2023-08-03T18:09:33.954Z,97490.26
2023-08-03T18:11:07.643Z,97489.30
2023-08-03T18:12:52.430Z,97490.40
2023-08-03T18:14:27.396Z,97496.60
2023-08-03T18:16:02.782Z,97495.44
2023-08-03T18:17:29.340Z,97499.98
2023-08-03T18:18:52.907Z,97500.23
2023-08-03T18:20:26.760Z,97509.85
2023-08-03T18:21:52.321Z,97508.58
2023-08-03T18:23:14.379Z,97508.64
2023-08-03T18:24:47.650Z,97510.15
2023-08-03T18:26:33.036Z,97514.52
2023-08-03T18:27:59.628Z,97513.70
2023-08-03T18:29:36.680Z,97517.09
2023-08-03T18:31:10.502Z,97525.06
2023-08-03T18:32:55.912Z,97523.25
2023-08-03T18:34:20.198Z,97528.92
2023-08-03T18:35:54.069Z,97533.50
2023-08-03T18:37:17.026Z,97540.05
2023-08-03T18:38:43.693Z,97538.54
2023-08-03T18:40:29.129Z,97542.02
2023-08-03T18:42:15.052Z,97544.24
2023-08-03T18:43:55.422Z,97547.95
2023-08-03T18:45:22.126Z,97542.95
2023-08-03T18:46:55.593Z,97543.34
2023-08-03T18:48:31.676Z,97538.74
2023-08-03T18:50:05.065Z,97539.67
2023-08-03T18:51:40.876Z,97552.73
2023-08-03T18:53:09.809Z,97556.88
2023-08-03T18:54:33.970Z,97559.48
2023-08-03T18:56:00.427Z,97558.91
2023-08-03T18:57:24.933Z,97562.13
2023-08-03T18:58:46.619Z,97565.54
2023-08-03T19:00:22.123Z,97569.13
2023-08-03T19:01:45.876Z,97571.39
2023-08-03T19:03:07.845Z,97571.80
2023-08-03T19:04:34.107Z,97575.28
2023-08-03T19:05:56.180Z,97577.11
2023-08-03T19:07:20.590Z,97581.02
2023-08-03T19:08:41.999Z,97581.88
2023-08-03T19:10:15.513Z,97581.64
2023-08-03T19:11:56.467Z,97581.65
2023-08-03T19:13:30.079Z,97584.55
2023-08-03T19:14:51.710Z,97589.30
2023-08-03T19:16:13.817Z,97588.83
2023-08-03T19:17:50.110Z,97594.59
2023-08-03T19:19:14.665Z,97590.33
2023-08-03T19:20:36.699Z,97595.89
2023-08-03T19:22:10.297Z,97592.16
2023-08-03T19:23:32.237Z,97595.46
2023-08-03T19:25:01.592Z,97596.08
2023-08-03T19:26:35.171Z,97606.08
2023-08-03T19:29:35.459Z,97609.44
2023-08-03T19:31:11.054Z,97612.82
2023-08-03T19:32:51.860Z,97609.55
2023-08-03T19:34:34.171Z,97611.18
2023-08-03T19:35:58.523Z,97614.05
2023-08-03T19:37:33.478Z,97613.08
2023-08-03T19:39:06.756Z,97614.71
2023-08-03T19:40:28.496Z,97613.47
2023-08-03T19:42:05.296Z,97614.46
2023-08-03T19:43:31.765Z,97623.21
2023-08-03T19:45:08.425Z,97624.59
2023-08-03T19:46:49.140Z,97624.85
2023-08-03T19:48:30.371Z,97622.41
2023-08-03T20:00:51.647Z,97646.80
2023-08-03T20:07:37.906Z,97638.84
2023-08-03T20:09:12.445Z,97642.92
2023-08-03T20:10:56.104Z,97632.78
2023-08-03T20:14:05.608Z,97648.27
2023-08-03T20:15:52.035Z,97647.36
2023-08-03T20:20:20.376Z,97641.24
2023-08-03T20:21:54.421Z,97644.36
2023-08-03T20:23:35.176Z,97645.61
2023-08-03T20:25:02.751Z,97648.30
2023-08-03T20:26:44.085Z,97652.33
2023-08-03T20:28:26.115Z,97648.77